Time;durP1;ratioP1;P1;durP2;ratioP2;P2;SDS_P1;SDS_P2;PMS_P1;PMS_P2;Temp;Humidity;BMP_temperature;BMP_pressure;BME280_temperature;BME280_humidity;BME280_pressure;Samples;Min_cycle;Max_cycle;Signal;HPM_P1;HPM_P2
2023/05/15 00:02:22;;;;;;;;;;;12.30;99.90;;;;;;5070488;28;19912;-76
2023/05/15 00:04:48;;;;;;;;;;;12.30;99.90;;;;;;5070219;28;19913;-75
2023/05/15 00:07:13;;;;;;;;;;;12.20;99.90;;;;;;5070157;28;20333;-76
2023/05/15 00:09:39;;;;;;;;;;;12.30;99.90;;;;;;5070340;28;19915;-76
2023/05/15 00:12:05;;;;;;;;;;;12.30;99.90;;;;;;5070174;28;19961;-76
2023/05/15 00:14:30;;;;;;;;;;;12.30;99.90;;;;;;5069711;28;20300;-75
2023/05/15 00:16:56;;;;;;;;;;;12.30;99.90;;;;;;5070027;28;19915;-76
2023/05/15 00:19:21;;;;;;;;;;;12.30;99.90;;;;;;5069971;28;19908;-76
2023/05/15 00:21:47;;;;;;;;;;;12.30;99.90;;;;;;5070226;28;19909;-77
2023/05/15 00:24:12;;;;;;;;;;;12.20;99.90;;;;;;5069985;28;19947;-76
2023/05/15 00:26:38;;;;;;;;;;;12.20;99.90;;;;;;5069804;28;19924;-77
2023/05/15 00:29:03;;;;;;;;;;;12.20;99.90;;;;;;5070045;28;19908;-75
2023/05/15 00:31:29;;;;;;;;;;;12.20;99.90;;;;;;5069813;28;19928;-76
2023/05/15 00:33:54;;;;;;;;;;;12.20;99.90;;;;;;5070025;28;20578;-75
2023/05/15 00:36:20;;;;;;;;;;;12.20;99.90;;;;;;5069761;28;20415;-75
2023/05/15 00:38:46;;;;;;;;;;;12.20;99.90;;;;;;5069413;28;19946;-75
2023/05/15 00:41:12;;;;;;;;;;;12.20;99.90;;;;;;5069711;28;19955;-76
2023/05/15 00:43:38;;;;;;;;;;;12.20;99.90;;;;;;5069963;28;19908;-76
2023/05/15 00:46:05;;;;;;;;;;;12.20;99.90;;;;;;5069543;28;20314;-75
2023/05/15 00:48:31;;;;;;;;;;;12.20;99.90;;;;;;5069244;28;19905;-74
2023/05/15 00:50:58;;;;;;;;;;;12.30;99.90;;;;;;5069335;28;19999;-75
2023/05/15 00:53:23;;;;;;;;;;;12.30;99.90;;;;;;5069441;28;19961;-75
2023/05/15 00:55:49;;;;;;;;;;;12.30;99.90;;;;;;5068394;28;19912;-75
2023/05/15 00:58:15;;;;;;;;;;;12.20;99.90;;;;;;5069272;28;19912;-76
2023/05/15 01:00:45;;;;;;;;;;;12.20;99.90;;;;;;5069236;28;19953;-76
2023/05/15 01:03:10;;;;;;;;;;;12.20;99.90;;;;;;5067799;28;19939;-76
2023/05/15 01:05:36;;;;;;;;;;;12.20;99.90;;;;;;5069148;28;19950;-76
2023/05/15 01:08:07;;;;;;;;;;;12.20;99.90;;;;;;5069049;28;19916;-76
2023/05/15 01:10:33;;;;;;;;;;;12.20;99.90;;;;;;5069120;28;19916;-76
2023/05/15 01:13:01;;;;;;;;;;;12.30;99.90;;;;;;5067999;28;19951;-75
2023/05/15 01:15:26;;;;;;;;;;;12.20;99.90;;;;;;5069276;28;19915;-76
2023/05/15 01:17:52;;;;;;;;;;;12.30;99.90;;;;;;5069085;28;19908;-75
2023/05/15 01:20:19;;;;;;;;;;;12.30;99.90;;;;;;5069109;28;19908;-74
2023/05/15 01:23:04;;;;;;;;;;;12.20;99.90;;;;;;5068760;28;19915;-76
2023/05/15 01:25:42;;;;;;;;;;;12.20;99.90;;;;;;5067760;28;20695;-76
2023/05/15 01:28:10;;;;;;;;;;;12.20;99.90;;;;;;5067469;28;20305;-76
2023/05/15 01:30:39;;;;;;;;;;;12.20;99.90;;;;;;5068860;28;19912;-77
2023/05/15 01:33:05;;;;;;;;;;;12.20;99.90;;;;;;5068597;28;20373;-76
2023/05/15 01:35:44;;;;;;;;;;;12.20;99.90;;;;;;5068790;28;19909;-76
2023/05/15 01:38:09;;;;;;;;;;;12.20;99.90;;;;;;5068772;28;19915;-76
2023/05/15 01:40:35;;;;;;;;;;;12.20;99.90;;;;;;5068243;28;19909;-75
2023/05/15 01:43:06;;;;;;;;;;;12.20;99.90;;;;;;5068739;28;20308;-76
2023/05/15 01:45:32;;;;;;;;;;;12.20;99.90;;;;;;5068962;28;19905;-76
2023/05/15 01:47:59;;;;;;;;;;;12.10;99.90;;;;;;5068737;28;19916;-75
2023/05/15 01:50:25;;;;;;;;;;;12.20;99.90;;;;;;5068736;28;19935;-77
2023/05/15 01:52:52;;;;;;;;;;;12.20;99.90;;;;;;5068809;28;20376;-74
2023/05/15 01:55:20;;;;;;;;;;;12.10;99.90;;;;;;5068656;28;19915;-76
2023/05/15 01:57:46;;;;;;;;;;;12.10;99.90;;;;;;5072146;28;20403;-76
2023/05/15 02:00:12;;;;;;;;;;;12.20;99.90;;;;;;5072677;28;19909;-76
2023/05/15 02:02:38;;;;;;;;;;;12.20;99.90;;;;;;5072640;28;19908;-76
2023/05/15 02:05:04;;;;;;;;;;;12.20;99.90;;;;;;5072788;28;20395;-76
2023/05/15 02:07:30;;;;;;;;;;;12.20;99.90;;;;;;5072779;28;19916;-76
2023/05/15 02:09:56;;;;;;;;;;;12.20;99.90;;;;;;5072798;28;20050;-75
2023/05/15 02:12:23;;;;;;;;;;;12.20;99.90;;;;;;5069369;28;19904;-74
2023/05/15 02:14:49;;;;;;;;;;;12.20;99.90;;;;;;5071241;28;19950;-74
2023/05/15 02:17:17;;;;;;;;;;;12.10;99.90;;;;;;5071241;28;20276;-75
2023/05/15 02:19:43;;;;;;;;;;;12.10;99.90;;;;;;5071150;28;19916;-74
2023/05/15 02:22:08;;;;;;;;;;;12.20;99.90;;;;;;5071069;28;20296;-75
2023/05/15 02:24:34;;;;;;;;;;;12.20;99.90;;;;;;5072154;28;20296;-75
2023/05/15 02:27:02;;;;;;;;;;;12.20;99.90;;;;;;5072043;28;19916;-75
2023/05/15 02:29:40;;;;;;;;;;;12.20;99.90;;;;;;5072351;28;19915;-76
2023/05/15 02:32:24;;;;;;;;;;;12.10;99.90;;;;;;5070953;28;19908;-76
2023/05/15 02:34:56;;;;;;;;;;;12.20;99.90;;;;;;5070526;28;20991;-75
2023/05/15 02:37:25;;;;;;;;;;;12.20;99.90;;;;;;5070825;28;19905;-75
2023/05/15 02:39:53;;;;;;;;;;;12.20;99.90;;;;;;5070778;28;19943;-75
2023/05/15 02:42:19;;;;;;;;;;;12.20;99.90;;;;;;5070744;28;19908;-75
2023/05/15 02:44:45;;;;;;;;;;;12.20;99.90;;;;;;5070476;28;19916;-75
2023/05/15 02:47:11;;;;;;;;;;;12.20;99.90;;;;;;5070559;28;19927;-76
2023/05/15 02:49:38;;;;;;;;;;;12.20;99.90;;;;;;5070636;28;20659;-75
2023/05/15 02:52:03;;;;;;;;;;;12.10;99.90;;;;;;5070699;28;19905;-76
2023/05/15 02:54:29;;;;;;;;;;;12.10;99.90;;;;;;5071612;28;19913;-74
2023/05/15 02:56:54;;;;;;;;;;;12.10;99.90;;;;;;5071612;28;20325;-76
2023/05/15 02:59:20;;;;;;;;;;;12.10;99.90;;;;;;5070427;28;20003;-75
2023/05/15 03:01:46;;;;;;;;;;;12.10;99.90;;;;;;5070156;28;19912;-76
2023/05/15 03:04:15;;;;;;;;;;;12.10;99.90;;;;;;5070124;28;19908;-75
2023/05/15 03:06:41;;;;;;;;;;;12.10;99.90;;;;;;5070083;28;19923;-76
2023/05/15 03:09:07;;;;;;;;;;;12.00;99.90;;;;;;5069173;28;19908;-74
2023/05/15 03:11:32;;;;;;;;;;;12.10;99.90;;;;;;5071468;28;19970;-74
2023/05/15 03:13:59;;;;;;;;;;;12.10;99.90;;;;;;5071378;28;19909;-76
2023/05/15 03:16:25;;;;;;;;;;;12.00;99.90;;;;;;5070157;28;19908;-75
2023/05/15 03:18:50;;;;;;;;;;;12.00;99.90;;;;;;5069803;28;19908;-76
2023/05/15 03:21:17;;;;;;;;;;;12.00;99.90;;;;;;5071317;28;20454;-76
2023/05/15 03:23:43;;;;;;;;;;;12.00;99.90;;;;;;5071470;28;19904;-75
2023/05/15 03:26:08;;;;;;;;;;;12.00;99.90;;;;;;5070002;28;20462;-75
2023/05/15 03:28:34;;;;;;;;;;;12.10;99.90;;;;;;5070898;28;19917;-75
2023/05/15 03:30:59;;;;;;;;;;;12.10;99.90;;;;;;5071163;28;19918;-75
2023/05/15 03:33:25;;;;;;;;;;;12.10;99.90;;;;;;5069433;28;19908;-75
2023/05/15 03:35:51;;;;;;;;;;;12.10;99.90;;;;;;5072678;28;19905;-77
2023/05/15 03:38:16;;;;;;;;;;;12.10;99.90;;;;;;5070617;28;20349;-76
2023/05/15 03:40:42;;;;;;;;;;;12.10;99.90;;;;;;5070188;28;20350;-75
2023/05/15 03:43:08;;;;;;;;;;;12.10;99.90;;;;;;5070728;28;19908;-76
2023/05/15 03:45:36;;;;;;;;;;;12.10;99.90;;;;;;5070967;28;19951;-76
2023/05/15 03:48:01;;;;;;;;;;;12.10;99.90;;;;;;5069401;28;20353;-76
2023/05/15 03:50:27;;;;;;;;;;;12.20;99.90;;;;;;5070813;28;20026;-76
2023/05/15 03:52:52;;;;;;;;;;;12.20;99.90;;;;;;5070508;28;19905;-76
2023/05/15 03:55:18;;;;;;;;;;;12.20;99.90;;;;;;5070716;28;20541;-75
2023/05/15 03:57:43;;;;;;;;;;;12.20;99.90;;;;;;5070448;28;20385;-75
2023/05/15 04:00:09;;;;;;;;;;;12.20;99.90;;;;;;5070615;28;20399;-75
2023/05/15 04:02:35;;;;;;;;;;;12.30;99.90;;;;;;5070467;28;19935;-75
2023/05/15 04:05:02;;;;;;;;;;;12.30;99.90;;;;;;5070541;28;20312;-75
2023/05/15 04:07:27;;;;;;;;;;;12.30;99.90;;;;;;5070291;28;19912;-76
2023/05/15 04:09:53;;;;;;;;;;;12.30;99.90;;;;;;5070786;28;20019;-75
2023/05/15 04:12:19;;;;;;;;;;;12.30;99.90;;;;;;5070346;28;19951;-75
2023/05/15 04:14:44;;;;;;;;;;;12.30;99.90;;;;;;5068633;28;20621;-76
2023/05/15 04:17:10;;;;;;;;;;;12.30;99.90;;;;;;5068951;28;19952;-75
2023/05/15 04:19:35;;;;;;;;;;;12.30;99.90;;;;;;5069765;28;20419;-75
2023/05/15 04:22:01;;;;;;;;;;;12.30;99.90;;;;;;5070086;28;19952;-76
2023/05/15 04:24:26;;;;;;;;;;;12.30;99.90;;;;;;5070341;28;19904;-75
2023/05/15 04:26:52;;;;;;;;;;;12.30;99.90;;;;;;5069630;28;19969;-75
2023/05/15 04:29:17;;;;;;;;;;;12.30;99.90;;;;;;5069834;28;19905;-76
2023/05/15 04:31:43;;;;;;;;;;;12.30;99.90;;;;;;5069677;28;20307;-76
2023/05/15 04:34:08;;;;;;;;;;;12.30;99.90;;;;;;5069693;28;19942;-77
2023/05/15 04:36:34;;;;;;;;;;;12.40;99.90;;;;;;5069812;28;19908;-77
2023/05/15 04:38:59;;;;;;;;;;;12.30;99.90;;;;;;5069932;28;19999;-77
2023/05/15 04:41:25;;;;;;;;;;;12.40;99.90;;;;;;5070113;28;19904;-77
2023/05/15 04:43:51;;;;;;;;;;;12.30;99.90;;;;;;5069506;28;19970;-77
2023/05/15 04:46:16;;;;;;;;;;;12.30;99.90;;;;;;5069570;28;19908;-77
2023/05/15 04:48:42;;;;;;;;;;;12.40;99.90;;;;;;5069325;28;19904;-77
2023/05/15 04:51:07;;;;;;;;;;;12.30;99.90;;;;;;5068506;28;19947;-77
2023/05/15 04:53:33;;;;;;;;;;;12.30;99.90;;;;;;5069312;28;19995;-76
2023/05/15 04:55:59;;;;;;;;;;;12.40;99.90;;;;;;5069346;28;19913;-77
2023/05/15 04:58:25;;;;;;;;;;;12.30;99.90;;;;;;5069557;28;19915;-76
2023/05/15 05:00:50;;;;;;;;;;;12.40;99.90;;;;;;5069035;28;19954;-77
2023/05/15 05:03:16;;;;;;;;;;;12.30;99.90;;;;;;5069235;28;19909;-77
2023/05/15 05:05:41;;;;;;;;;;;12.40;99.90;;;;;;5069274;28;19930;-77
2023/05/15 05:08:07;;;;;;;;;;;12.30;99.90;;;;;;5068824;28;19916;-77
2023/05/15 05:10:32;;;;;;;;;;;12.30;99.90;;;;;;5068972;28;19915;-77
2023/05/15 05:12:58;;;;;;;;;;;12.30;99.90;;;;;;5069129;28;19908;-76
2023/05/15 05:15:23;;;;;;;;;;;12.30;99.90;;;;;;5068903;28;19916;-76
2023/05/15 05:17:49;;;;;;;;;;;12.30;99.90;;;;;;5069207;28;19920;-77
2023/05/15 05:20:14;;;;;;;;;;;12.30;99.90;;;;;;5067936;28;19951;-77
2023/05/15 05:22:41;;;;;;;;;;;12.40;99.90;;;;;;5068774;28;19909;-78
2023/05/15 05:25:06;;;;;;;;;;;12.40;99.90;;;;;;5068981;28;19911;-77
2023/05/15 05:27:32;;;;;;;;;;;12.50;99.90;;;;;;5067708;28;19920;-76
2023/05/15 05:29:58;;;;;;;;;;;12.40;99.90;;;;;;5068478;28;19905;-77
2023/05/15 05:32:23;;;;;;;;;;;12.40;99.90;;;;;;5066440;28;19912;-76
2023/05/15 05:34:49;;;;;;;;;;;12.40;99.90;;;;;;5068629;28;20619;-77
2023/05/15 05:37:15;;;;;;;;;;;12.50;99.90;;;;;;5069128;28;19912;-78
2023/05/15 05:39:40;;;;;;;;;;;12.40;99.90;;;;;;5068510;28;19912;-76
2023/05/15 05:42:06;;;;;;;;;;;12.40;99.90;;;;;;5068613;28;19953;-77
2023/05/15 05:44:33;;;;;;;;;;;12.40;99.90;;;;;;5068486;28;19953;-77
2023/05/15 05:46:58;;;;;;;;;;;12.40;99.90;;;;;;5067548;28;19908;-77
2023/05/15 05:49:24;;;;;;;;;;;12.40;99.90;;;;;;5068696;28;20334;-76
2023/05/15 05:51:49;;;;;;;;;;;12.40;99.90;;;;;;5068768;28;19909;-77
2023/05/15 05:54:17;;;;;;;;;;;12.40;99.90;;;;;;5068931;28;19912;-76
2023/05/15 05:56:42;;;;;;;;;;;12.30;99.90;;;;;;5068401;28;19915;-77
2023/05/15 05:59:08;;;;;;;;;;;12.40;99.90;;;;;;5067669;28;19908;-76
2023/05/15 06:01:33;;;;;;;;;;;12.40;99.90;;;;;;5068639;28;19915;-77
2023/05/15 06:04:00;;;;;;;;;;;12.40;99.90;;;;;;5068675;28;19912;-77
2023/05/15 06:06:25;;;;;;;;;;;12.40;99.90;;;;;;5068642;28;19987;-76
2023/05/15 06:08:51;;;;;;;;;;;12.40;99.90;;;;;;5068545;28;20045;-78
2023/05/15 06:11:16;;;;;;;;;;;12.40;99.90;;;;;;5068526;28;19991;-77
2023/05/15 06:13:42;;;;;;;;;;;12.40;99.90;;;;;;5068628;28;19909;-77
2023/05/15 06:16:08;;;;;;;;;;;12.40;99.90;;;;;;5068506;28;19912;-78
2023/05/15 06:18:33;;;;;;;;;;;12.50;99.90;;;;;;5068177;28;19995;-77
2023/05/15 06:20:59;;;;;;;;;;;12.50;99.90;;;;;;5067022;28;20065;-75
2023/05/15 06:23:28;;;;;;;;;;;12.50;99.90;;;;;;5068475;28;19913;-76
2023/05/15 06:25:53;;;;;;;;;;;12.50;99.90;;;;;;5066967;28;19915;-76
2023/05/15 06:28:19;;;;;;;;;;;12.50;99.90;;;;;;5068240;28;19924;-76
2023/05/15 06:30:44;;;;;;;;;;;12.50;99.90;;;;;;5068148;28;19914;-76
2023/05/15 06:33:10;;;;;;;;;;;12.50;99.90;;;;;;5068211;28;19908;-77
2023/05/15 06:35:35;;;;;;;;;;;12.50;99.90;;;;;;5068294;28;19908;-77
2023/05/15 06:38:01;;;;;;;;;;;12.50;99.90;;;;;;5068198;28;19987;-76
2023/05/15 06:40:26;;;;;;;;;;;12.50;99.90;;;;;;5068070;28;19912;-76
2023/05/15 06:42:52;;;;;;;;;;;12.50;99.90;;;;;;5069478;28;20627;-75
2023/05/15 06:45:17;;;;;;;;;;;12.50;99.90;;;;;;5072066;28;19914;-76
2023/05/15 06:47:43;;;;;;;;;;;12.50;99.90;;;;;;5072035;28;20289;-75
2023/05/15 06:50:09;;;;;;;;;;;12.60;99.90;;;;;;5071916;28;20000;-76
2023/05/15 06:52:34;;;;;;;;;;;12.60;99.90;;;;;;5071571;28;20241;-75
2023/05/15 06:55:00;;;;;;;;;;;12.70;99.90;;;;;;5071824;28;19909;-75
2023/05/15 06:57:25;;;;;;;;;;;12.60;99.90;;;;;;5071686;28;19915;-76
2023/05/15 06:59:51;;;;;;;;;;;12.70;99.90;;;;;;5072174;28;19908;-76
2023/05/15 07:02:17;;;;;;;;;;;12.70;99.90;;;;;;5071913;28;19908;-75
2023/05/15 07:04:42;;;;;;;;;;;12.60;99.90;;;;;;5071971;28;19912;-76
2023/05/15 07:07:08;;;;;;;;;;;12.70;99.90;;;;;;5071414;28;20300;-75
2023/05/15 07:09:34;;;;;;;;;;;12.70;99.90;;;;;;5071545;28;19908;-76
2023/05/15 07:11:59;;;;;;;;;;;12.70;99.90;;;;;;5071374;28;19928;-76
2023/05/15 07:14:25;;;;;;;;;;;12.70;99.90;;;;;;5071274;28;19908;-75
2023/05/15 07:16:50;;;;;;;;;;;12.80;99.90;;;;;;5071177;28;19923;-76
2023/05/15 07:19:17;;;;;;;;;;;12.80;99.90;;;;;;5071437;28;19950;-76
2023/05/15 07:21:43;;;;;;;;;;;12.80;99.90;;;;;;5071286;28;19992;-76
2023/05/15 07:24:08;;;;;;;;;;;12.70;99.90;;;;;;5071182;28;20393;-76
2023/05/15 07:26:35;;;;;;;;;;;12.80;99.90;;;;;;5070660;28;19916;-75
2023/05/15 07:29:01;;;;;;;;;;;12.80;99.90;;;;;;5071305;28;19916;-76
2023/05/15 07:31:26;;;;;;;;;;;12.90;99.90;;;;;;5070950;28;19908;-75
2023/05/15 07:33:52;;;;;;;;;;;12.90;99.90;;;;;;5071238;28;20012;-77
2023/05/15 07:36:17;;;;;;;;;;;12.90;99.90;;;;;;5071223;28;19909;-77
2023/05/15 07:38:43;;;;;;;;;;;13.00;99.90;;;;;;5070983;28;20356;-76
2023/05/15 07:41:08;;;;;;;;;;;13.00;99.90;;;;;;5070904;28;20593;-77
2023/05/15 07:43:34;;;;;;;;;;;13.00;99.90;;;;;;5070857;28;19908;-76
2023/05/15 07:46:00;;;;;;;;;;;13.00;99.90;;;;;;5070723;28;20388;-76
2023/05/15 07:48:25;;;;;;;;;;;13.00;99.90;;;;;;5070661;28;19920;-76
2023/05/15 07:50:52;;;;;;;;;;;13.00;99.90;;;;;;5070381;28;19904;-77
2023/05/15 07:53:18;;;;;;;;;;;13.00;99.90;;;;;;5069988;28;19912;-76
2023/05/15 07:55:44;;;;;;;;;;;13.00;99.90;;;;;;5069730;28;19908;-76
2023/05/15 07:58:09;;;;;;;;;;;13.10;99.90;;;;;;5070465;28;19908;-77
2023/05/15 08:00:35;;;;;;;;;;;13.20;99.90;;;;;;5070293;28;19908;-78
2023/05/15 08:03:01;;;;;;;;;;;13.20;99.90;;;;;;5070340;28;20395;-76
2023/05/15 08:05:28;;;;;;;;;;;13.30;99.90;;;;;;5070270;28;19909;-76
2023/05/15 08:07:54;;;;;;;;;;;13.50;99.90;;;;;;5068846;28;20307;-77
2023/05/15 08:10:20;;;;;;;;;;;13.60;99.90;;;;;;5070313;28;19908;-76
2023/05/15 08:12:46;;;;;;;;;;;13.70;99.90;;;;;;5070014;28;20373;-76
2023/05/15 08:15:11;;;;;;;;;;;13.70;99.90;;;;;;5070271;28;19931;-75
2023/05/15 08:17:37;;;;;;;;;;;13.70;99.90;;;;;;5070408;28;20360;-76
2023/05/15 08:20:03;;;;;;;;;;;13.70;99.90;;;;;;5070405;28;19915;-77
2023/05/15 08:22:29;;;;;;;;;;;13.70;99.90;;;;;;5070270;28;19913;-77
2023/05/15 08:24:55;;;;;;;;;;;13.70;99.90;;;;;;5070223;28;20302;-77
2023/05/15 08:27:20;;;;;;;;;;;13.70;99.90;;;;;;5069521;28;20419;-77
2023/05/15 08:29:46;;;;;;;;;;;13.80;99.90;;;;;;5068006;28;19908;-77
2023/05/15 08:32:12;;;;;;;;;;;13.80;99.90;;;;;;5069897;28;19916;-76
2023/05/15 08:34:37;;;;;;;;;;;13.80;99.90;;;;;;5068345;28;19908;-76
2023/05/15 08:37:03;;;;;;;;;;;13.90;99.90;;;;;;5069934;28;19998;-76
2023/05/15 08:39:29;;;;;;;;;;;13.90;99.90;;;;;;5069491;28;19962;-76
2023/05/15 08:42:02;;;;;;;;;;;13.90;99.90;;;;;;5069095;28;19961;-77
2023/05/15 08:44:27;;;;;;;;;;;14.00;99.90;;;;;;5069643;28;20369;-76
2023/05/15 08:46:53;;;;;;;;;;;14.10;99.90;;;;;;5069262;28;19916;-77
2023/05/15 08:49:25;;;;;;;;;;;14.10;99.90;;;;;;5069445;28;20062;-76
2023/05/15 08:51:51;;;;;;;;;;;14.20;99.90;;;;;;5069237;28;19908;-77
2023/05/15 08:54:16;;;;;;;;;;;14.30;99.90;;;;;;5069321;28;19990;-78
2023/05/15 08:56:42;;;;;;;;;;;14.30;99.90;;;;;;5069185;28;20029;-77
2023/05/15 08:59:07;;;;;;;;;;;14.30;99.90;;;;;;5069160;28;19904;-77
2023/05/15 09:01:34;;;;;;;;;;;14.30;99.90;;;;;;5069853;28;19995;-77
2023/05/15 09:03:59;;;;;;;;;;;14.40;99.90;;;;;;5069000;28;19915;-77
2023/05/15 09:06:25;;;;;;;;;;;14.50;99.90;;;;;;5069969;28;19909;-77
2023/05/15 09:08:54;;;;;;;;;;;14.70;99.90;;;;;;5069211;28;20348;-78
2023/05/15 09:11:22;;;;;;;;;;;14.70;99.90;;;;;;5067769;28;19912;-75
2023/05/15 09:13:48;;;;;;;;;;;14.80;99.90;;;;;;5069258;28;20347;-78
2023/05/15 09:16:13;;;;;;;;;;;14.70;99.90;;;;;;5069147;28;20411;-78
2023/05/15 09:18:39;;;;;;;;;;;14.70;99.90;;;;;;5069107;28;19912;-78
2023/05/15 09:21:24;;;;;;;;;;;14.90;99.90;;;;;;5069143;28;19909;-78
2023/05/15 09:23:50;;;;;;;;;;;15.00;99.90;;;;;;5069156;28;19912;-77
2023/05/15 09:26:15;;;;;;;;;;;15.20;99.90;;;;;;5069060;28;20375;-77
2023/05/15 09:28:41;;;;;;;;;;;15.40;99.90;;;;;;5068764;28;19927;-77
2023/05/15 09:31:07;;;;;;;;;;;15.70;99.90;;;;;;5068739;28;19953;-79
2023/05/15 09:33:34;;;;;;;;;;;15.90;99.90;;;;;;5068661;28;19911;-76
2023/05/15 09:36:01;;;;;;;;;;;16.10;99.90;;;;;;5068739;28;20399;-76
2023/05/15 09:38:27;;;;;;;;;;;16.40;99.90;;;;;;5069025;28;19904;-78
2023/05/15 09:41:05;;;;;;;;;;;16.70;99.90;;;;;;5067154;28;20375;-77
2023/05/15 09:43:35;;;;;;;;;;;16.90;99.90;;;;;;5068425;28;19908;-79
2023/05/15 09:46:01;;;;;;;;;;;17.00;99.90;;;;;;5068737;28;19923;-78
2023/05/15 09:48:27;;;;;;;;;;;17.10;99.90;;;;;;5068518;28;19913;-77
2023/05/15 09:50:53;;;;;;;;;;;17.00;99.90;;;;;;5066573;28;19915;-79
2023/05/15 09:53:20;;;;;;;;;;;17.10;99.90;;;;;;5068651;28;20323;-79
2023/05/15 09:55:46;;;;;;;;;;;17.20;99.90;;;;;;5068959;28;19974;-79
2023/05/15 09:58:13;;;;;;;;;;;17.20;99.90;;;;;;5068546;28;19908;-78
2023/05/15 10:00:39;;;;;;;;;;;17.00;99.90;;;;;;5068463;28;19908;-78
2023/05/15 10:03:05;;;;;;;;;;;17.00;99.90;;;;;;5068465;28;19931;-77
2023/05/15 10:05:30;;;;;;;;;;;17.00;99.90;;;;;;5068407;28;20550;-77
2023/05/15 10:07:57;;;;;;;;;;;16.90;99.90;;;;;;5067985;28;19917;-78
2023/05/15 10:10:23;;;;;;;;;;;16.90;99.90;;;;;;5068555;28;19953;-78
2023/05/15 10:12:52;;;;;;;;;;;16.90;99.90;;;;;;5066808;28;19931;-78
2023/05/15 10:15:19;;;;;;;;;;;16.90;99.90;;;;;;5068578;28;19908;-78
2023/05/15 10:17:46;;;;;;;;;;;16.90;99.90;;;;;;5070004;28;19915;-79
2023/05/15 10:20:12;;;;;;;;;;;17.00;99.90;;;;;;5072495;28;20170;-79
2023/05/15 10:22:40;;;;;;;;;;;17.10;99.90;;;;;;5071808;28;20347;-78
2023/05/15 10:25:06;;;;;;;;;;;17.20;99.90;;;;;;5072102;28;20452;-78
2023/05/15 10:27:34;;;;;;;;;;;17.30;99.90;;;;;;5071812;28;20035;-79
2023/05/15 10:30:00;;;;;;;;;;;17.30;99.90;;;;;;5072177;28;19919;-79
2023/05/15 10:32:26;;;;;;;;;;;17.30;99.90;;;;;;5071986;28;19912;-78
2023/05/15 10:34:53;;;;;;;;;;;17.40;99.90;;;;;;5070530;28;19908;-78
2023/05/15 10:37:19;;;;;;;;;;;17.30;99.90;;;;;;5070948;28;20269;-77
2023/05/15 10:39:46;;;;;;;;;;;17.20;99.90;;;;;;5071364;28;20455;-78
2023/05/15 10:42:12;;;;;;;;;;;17.10;99.90;;;;;;5071987;28;19955;-79
2023/05/15 10:44:38;;;;;;;;;;;17.00;99.90;;;;;;5071879;28;19951;-79
2023/05/15 10:47:04;;;;;;;;;;;16.90;99.90;;;;;;5071780;28;19919;-80
2023/05/15 10:49:30;;;;;;;;;;;16.90;99.90;;;;;;5070526;28;20060;-79
2023/05/15 10:51:58;;;;;;;;;;;16.80;99.90;;;;;;5071581;28;19904;-78
2023/05/15 10:54:24;;;;;;;;;;;17.00;99.90;;;;;;5071750;28;19908;-78
2023/05/15 10:56:49;;;;;;;;;;;17.10;99.90;;;;;;5070284;28;19908;-79
2023/05/15 10:59:15;;;;;;;;;;;17.40;99.90;;;;;;5071605;28;19927;-79
2023/05/15 11:01:41;;;;;;;;;;;17.80;99.90;;;;;;5071670;28;19904;-78
2023/05/15 11:04:09;;;;;;;;;;;18.10;99.90;;;;;;5070358;28;19927;-79
2023/05/15 11:06:36;;;;;;;;;;;18.40;99.90;;;;;;5071250;28;19908;-80
2023/05/15 11:09:20;;;;;;;;;;;18.60;99.90;;;;;;5070306;28;20327;-79
2023/05/15 11:11:51;;;;;;;;;;;18.70;99.90;;;;;;5071223;28;19908;-78
2023/05/15 11:14:20;;;;;;;;;;;18.80;99.90;;;;;;5070217;28;20281;-79
2023/05/15 11:17:06;;;;;;;;;;;18.90;99.90;;;;;;5071001;28;20001;-80
2023/05/15 11:19:35;;;;;;;;;;;18.90;99.90;;;;;;5070997;28;19912;-78
2023/05/15 11:22:01;;;;;;;;;;;18.90;99.90;;;;;;5070939;28;19908;-78
2023/05/15 11:24:27;;;;;;;;;;;18.70;99.90;;;;;;5071272;28;19915;-79
2023/05/15 11:27:00;;;;;;;;;;;18.70;99.90;;;;;;5070723;28;20266;-77
2023/05/15 11:29:25;;;;;;;;;;;18.70;99.90;;;;;;5070051;28;19912;-79
2023/05/15 11:31:51;;;;;;;;;;;18.70;99.90;;;;;;5071150;28;19928;-78
2023/05/15 11:34:27;;;;;;;;;;;18.60;99.90;;;;;;5071252;28;20258;-78
2023/05/15 11:36:53;;;;;;;;;;;18.50;99.90;;;;;;5071058;28;19915;-79
2023/05/15 11:39:22;;;;;;;;;;;18.50;99.90;;;;;;5070771;28;19904;-79
2023/05/15 11:41:48;;;;;;;;;;;18.70;99.90;;;;;;5069189;28;19904;-77
2023/05/15 11:44:18;;;;;;;;;;;18.70;99.90;;;;;;5070699;28;19987;-77
2023/05/15 11:46:44;;;;;;;;;;;18.90;99.90;;;;;;5070764;28;19923;-79
2023/05/15 11:49:10;;;;;;;;;;;18.90;99.90;;;;;;5070707;28;19917;-78
2023/05/15 11:51:41;;;;;;;;;;;18.80;99.90;;;;;;5069029;28;20623;-78
2023/05/15 11:54:09;;;;;;;;;;;18.70;99.90;;;;;;5069295;28;19908;-78
2023/05/15 11:56:34;;;;;;;;;;;18.50;99.90;;;;;;5069385;28;19908;-79
2023/05/15 11:59:01;;;;;;;;;;;18.40;99.90;;;;;;5069498;28;19912;-77
2023/05/15 12:01:28;;;;;;;;;;;18.30;99.90;;;;;;5070508;28;19904;-77
2023/05/15 12:03:53;;;;;;;;;;;18.30;99.90;;;;;;5070322;28;20277;-78
2023/05/15 12:06:19;;;;;;;;;;;18.30;99.90;;;;;;5070626;28;19919;-77
2023/05/15 12:08:50;;;;;;;;;;;18.30;99.90;;;;;;5070262;28;19912;-77
2023/05/15 12:11:16;;;;;;;;;;;18.30;99.90;;;;;;5070348;28;19923;-77
2023/05/15 12:13:41;;;;;;;;;;;18.40;99.90;;;;;;5070192;28;19908;-77
2023/05/15 12:16:07;;;;;;;;;;;18.50;99.90;;;;;;5070204;28;19996;-78
2023/05/15 12:18:33;;;;;;;;;;;18.60;99.90;;;;;;5070015;28;19962;-78
2023/05/15 12:20:59;;;;;;;;;;;18.70;99.90;;;;;;5068706;28;19954;-78
2023/05/15 12:23:25;;;;;;;;;;;18.80;99.90;;;;;;5070012;28;19905;-78
2023/05/15 12:25:53;;;;;;;;;;;18.80;99.90;;;;;;5068528;28;19908;-77
2023/05/15 12:28:19;;;;;;;;;;;18.80;99.90;;;;;;5069714;28;20019;-78
2023/05/15 12:30:45;;;;;;;;;;;18.80;99.90;;;;;;5068492;28;20241;-77
2023/05/15 12:33:11;;;;;;;;;;;18.70;99.90;;;;;;5069720;28;20101;-77
2023/05/15 12:35:40;;;;;;;;;;;18.60;99.90;;;;;;5069651;28;19908;-78
2023/05/15 12:38:06;;;;;;;;;;;18.70;99.90;;;;;;5069678;28;19992;-77
2023/05/15 12:40:35;;;;;;;;;;;18.70;99.90;;;;;;5069200;28;20003;-77
2023/05/15 12:43:08;;;;;;;;;;;18.90;99.90;;;;;;5068718;28;20020;-76
2023/05/15 12:45:35;;;;;;;;;;;19.00;99.90;;;;;;5067937;28;19904;-79
2023/05/15 12:48:00;;;;;;;;;;;19.10;99.90;;;;;;5068967;28;20010;-78
2023/05/15 12:50:29;;;;;;;;;;;19.10;99.90;;;;;;5069700;28;20365;-78
2023/05/15 12:52:56;;;;;;;;;;;19.20;99.90;;;;;;5069416;28;19904;-78
2023/05/15 12:55:40;;;;;;;;;;;19.20;99.90;;;;;;5068221;28;19919;-78
2023/05/15 12:58:08;;;;;;;;;;;19.10;99.90;;;;;;5065187;28;20300;-78
2023/05/15 13:00:37;;;;;;;;;;;18.90;99.90;;;;;;5065451;28;19908;-79
2023/05/15 13:03:03;;;;;;;;;;;18.80;99.90;;;;;;5069119;28;19978;-78
2023/05/15 13:05:32;;;;;;;;;;;18.90;99.90;;;;;;5069353;28;20390;-78
2023/05/15 13:07:58;;;;;;;;;;;18.90;99.90;;;;;;5069131;28;20007;-77
2023/05/15 13:10:24;;;;;;;;;;;18.70;99.90;;;;;;5067780;28;19908;-78
2023/05/15 13:12:51;;;;;;;;;;;18.70;99.90;;;;;;5067818;28;19909;-77
2023/05/15 13:15:35;;;;;;;;;;;18.90;99.90;;;;;;5069177;28;19958;-77
2023/05/15 13:18:01;;;;;;;;;;;18.90;99.90;;;;;;5069407;28;19904;-77
2023/05/15 13:20:28;;;;;;;;;;;19.00;99.90;;;;;;5068208;28;19935;-77
2023/05/15 13:22:54;;;;;;;;;;;19.00;99.90;;;;;;5068045;28;19915;-78
2023/05/15 13:25:20;;;;;;;;;;;19.00;99.90;;;;;;5067716;28;19960;-76
2023/05/15 13:27:46;;;;;;;;;;;18.90;99.90;;;;;;5067618;28;19920;-78
2023/05/15 13:30:13;;;;;;;;;;;19.00;99.90;;;;;;5067387;28;20223;-76
2023/05/15 13:32:38;;;;;;;;;;;19.00;99.90;;;;;;5068818;28;19904;-79
2023/05/15 13:35:04;;;;;;;;;;;19.10;99.90;;;;;;5068816;28;20323;-77
2023/05/15 13:37:30;;;;;;;;;;;19.20;99.90;;;;;;5068411;28;19912;-77
2023/05/15 13:39:55;;;;;;;;;;;19.30;99.90;;;;;;5068788;28;19940;-77
2023/05/15 13:42:21;;;;;;;;;;;19.40;99.90;;;;;;5068161;28;20003;-78
2023/05/15 13:44:46;;;;;;;;;;;19.30;99.90;;;;;;5068242;28;20229;-77
2023/05/15 13:47:12;;;;;;;;;;;19.20;99.90;;;;;;5067156;28;19916;-77
2023/05/15 13:49:37;;;;;;;;;;;19.20;99.90;;;;;;5068829;28;20365;-77
2023/05/15 13:52:03;;;;;;;;;;;19.20;99.90;;;;;;5067601;28;20366;-76
2023/05/15 13:54:30;;;;;;;;;;;19.10;99.90;;;;;;5068529;28;19914;-77
2023/05/15 13:56:55;;;;;;;;;;;19.10;99.90;;;;;;5068620;28;19934;-77
2023/05/15 13:59:21;;;;;;;;;;;19.00;99.90;;;;;;5068593;28;19905;-78
2023/05/15 14:01:46;;;;;;;;;;;18.90;99.90;;;;;;5068416;28;19905;-77
2023/05/15 14:04:12;;;;;;;;;;;18.80;99.90;;;;;;5068496;28;20027;-76
2023/05/15 14:06:37;;;;;;;;;;;18.70;99.90;;;;;;5068356;28;19916;-78
2023/05/15 14:09:03;;;;;;;;;;;18.60;99.90;;;;;;5068890;28;19913;-78
2023/05/15 14:11:29;;;;;;;;;;;18.50;99.90;;;;;;5068241;28;19914;-77
2023/05/15 14:13:54;;;;;;;;;;;18.60;99.90;;;;;;5068531;28;19923;-77